< < Back
Terminal Aerodrome Forecast


Current Version              Previous Versions:   1  2  3  4  5  6  7  8  9  

Terminal Aerodrome Forecast

691
FTAK31 PAJN 110527
TAFAHN
TAF
PAHN 110527Z 1106/1206 30010KT P6SM -SNRA OVC040
      TEMPO 1106/1110 2SM -SNRA BR FEW010 OVC025
     FM111000 08010KT 6SM -RA BR BKN015 OVC035
     FM120000 VRB05KT P6SM VCSH SCT035 BKN060
      AMD LTD TO CLD VIS AND WIND=

Latest METAR

357
SAUS70 KWBC 111700 RRA
MTRAHN
METAR KAHN 111651Z VRB04KT 10SM CLR 09/M08 A3019 RMK AO2 SLP230
T00891083


USA.gov is the U.S. government's official web portal to all federal, state and local government web resources and services.